createdAt,value
2023-04-28T00:01:13.300Z,3.83
2023-04-28T00:03:40.252Z,3.97
2023-04-28T00:06:07.130Z,4.57
2023-04-28T00:08:34.297Z,4.10
2023-04-28T00:11:01.003Z,4.35
2023-04-28T00:13:28.557Z,4.65
2023-04-28T00:15:55.284Z,4.00
2023-04-28T00:18:22.207Z,4.28
2023-04-28T00:20:49.247Z,3.95
2023-04-28T00:23:16.118Z,4.03
2023-04-28T00:25:42.672Z,3.97
2023-04-28T00:28:09.238Z,4.53
2023-04-28T00:30:35.916Z,3.83
2023-04-28T00:33:02.586Z,4.72
2023-04-28T00:35:29.316Z,4.72
2023-04-28T00:37:55.905Z,4.30
2023-04-28T00:40:22.562Z,4.20
2023-04-28T00:42:49.194Z,4.18
2023-04-28T00:45:15.986Z,4.35
2023-04-28T00:47:42.982Z,4.00
2023-04-28T00:50:10.605Z,4.10
2023-04-28T00:52:38.626Z,4.95
2023-04-28T00:55:06.099Z,4.55
2023-04-28T00:57:32.758Z,4.97
2023-04-28T00:59:59.733Z,4.65
2023-04-28T01:02:27.089Z,4.75
2023-04-28T01:04:54.422Z,4.97
2023-04-28T01:07:21.487Z,4.22
2023-04-28T01:09:48.152Z,4.43
2023-04-28T01:12:14.875Z,4.97
2023-04-28T01:14:41.957Z,4.72
2023-04-28T01:17:08.804Z,5.18
2023-04-28T01:19:35.983Z,5.15
2023-04-28T01:22:02.538Z,4.93
2023-04-28T01:24:29.374Z,5.03
2023-04-28T01:26:56.299Z,4.78
2023-04-28T01:29:22.890Z,4.70
2023-04-28T01:31:49.578Z,4.70
2023-04-28T01:34:16.497Z,5.47
2023-04-28T01:36:43.279Z,5.45
2023-04-28T01:39:09.919Z,4.43
2023-04-28T01:41:36.552Z,4.97
2023-04-28T01:44:03.933Z,4.70
2023-04-28T01:46:30.630Z,4.88
2023-04-28T01:48:57.409Z,5.70
2023-04-28T01:51:24.030Z,4.55
2023-04-28T01:53:50.632Z,5.10
2023-04-28T01:56:17.303Z,5.35
2023-04-28T01:58:44.089Z,4.80
2023-04-28T02:01:12.279Z,4.65
2023-04-28T02:03:38.974Z,4.68
2023-04-28T02:06:05.875Z,5.20
2023-04-28T02:08:32.576Z,5.10
2023-04-28T02:11:01.506Z,4.10
2023-04-28T02:13:28.036Z,4.95
2023-04-28T02:15:54.627Z,5.18
2023-04-28T02:18:21.202Z,5.00
2023-04-28T02:20:47.948Z,4.80
2023-04-28T02:23:14.561Z,5.32
2023-04-28T02:25:41.196Z,4.82
2023-04-28T02:28:07.730Z,4.70
2023-04-28T02:30:34.301Z,5.38
2023-04-28T02:33:01.084Z,4.70
2023-04-28T02:35:27.874Z,5.05
2023-04-28T02:37:54.461Z,4.88
2023-04-28T02:40:21.295Z,4.90
2023-04-28T02:42:48.132Z,4.72
2023-04-28T02:45:14.774Z,4.72
2023-04-28T02:47:41.365Z,4.80
2023-04-28T02:50:08.716Z,5.22
2023-04-28T02:52:35.381Z,5.07
2023-04-28T02:55:03.672Z,5.07
2023-04-28T02:57:30.417Z,5.45
2023-04-28T02:59:57.307Z,5.35
2023-04-28T03:02:24.018Z,5.90
2023-04-28T03:04:50.664Z,4.68
2023-04-28T03:07:17.361Z,5.28
2023-04-28T03:09:45.915Z,5.35
2023-04-28T03:12:12.458Z,5.63
2023-04-28T03:14:38.999Z,5.63
2023-04-28T03:17:05.867Z,5.28
2023-04-28T03:19:33.395Z,5.90
2023-04-28T03:22:00.005Z,5.32
2023-04-28T03:24:26.636Z,5.32
2023-04-28T03:26:53.377Z,5.05
2023-04-28T03:29:20.132Z,5.20
2023-04-28T03:31:46.714Z,5.45
2023-04-28T03:34:15.399Z,5.18
2023-04-28T03:36:42.331Z,5.07
2023-04-28T03:39:11.521Z,5.60
2023-04-28T03:41:38.085Z,5.82
2023-04-28T03:44:04.770Z,6.45
2023-04-28T03:46:31.398Z,5.28
2023-04-28T03:48:57.963Z,6.22
2023-04-28T03:51:24.585Z,5.50
2023-04-28T03:53:51.201Z,5.88
2023-04-28T03:56:17.862Z,5.95
2023-04-28T03:58:44.502Z,5.65
2023-04-28T04:01:11.450Z,6.40
2023-04-28T04:03:38.191Z,6.18
2023-04-28T04:06:05.329Z,5.75
2023-04-28T04:08:33.327Z,5.30
2023-04-28T04:10:59.869Z,5.80
2023-04-28T04:13:26.618Z,5.65
2023-04-28T04:15:53.260Z,5.32
2023-04-28T04:18:19.982Z,5.82
2023-04-28T04:20:46.638Z,5.20
2023-04-28T04:23:13.295Z,6.13
2023-04-28T04:25:39.893Z,5.70
2023-04-28T04:28:06.508Z,5.35
2023-04-28T04:30:33.245Z,5.65
2023-04-28T04:32:59.902Z,5.68
2023-04-28T04:35:26.482Z,5.35
2023-04-28T04:37:53.325Z,5.55
2023-04-28T04:40:19.978Z,6.05
2023-04-28T04:42:46.615Z,5.30
2023-04-28T04:45:13.302Z,5.65
2023-04-28T04:47:41.468Z,6.35
2023-04-28T04:50:08.500Z,5.78
2023-04-28T04:52:35.210Z,5.13
2023-04-28T04:55:01.831Z,5.55
2023-04-28T04:57:28.594Z,5.15
2023-04-28T04:59:57.362Z,6.05
2023-04-28T05:02:25.685Z,5.57
2023-04-28T05:04:53.258Z,5.22
2023-04-28T05:07:20.257Z,6.10
2023-04-28T05:09:47.032Z,5.25
2023-04-28T05:12:13.572Z,6.03
2023-04-28T05:14:40.159Z,5.00
2023-04-28T05:17:06.751Z,5.35
2023-04-28T05:19:33.567Z,4.97
2023-04-28T05:22:01.125Z,5.00
2023-04-28T05:24:28.119Z,4.95
2023-04-28T05:26:57.477Z,4.63
2023-04-28T05:29:26.110Z,5.45
2023-04-28T05:31:52.912Z,5.13
2023-04-28T05:34:19.688Z,4.72
2023-04-28T05:36:46.476Z,4.80
2023-04-28T05:39:14.753Z,5.53
2023-04-28T05:41:41.931Z,5.10
2023-04-28T05:44:10.436Z,5.38
2023-04-28T05:46:37.401Z,4.90
2023-04-28T05:49:04.137Z,4.80
2023-04-28T05:51:33.080Z,4.45
2023-04-28T05:53:59.640Z,4.13
2023-04-28T05:56:26.222Z,4.55
2023-04-28T05:58:53.533Z,4.47
2023-04-28T06:01:20.233Z,4.57
2023-04-28T06:03:47.073Z,4.30
2023-04-28T06:06:15.520Z,4.47
2023-04-28T06:08:42.174Z,3.85
2023-04-28T06:11:10.637Z,3.50
2023-04-28T06:13:37.262Z,3.47
2023-04-28T06:16:04.269Z,3.55
2023-04-28T06:18:33.951Z,3.63
2023-04-28T06:21:00.499Z,3.15
2023-04-28T06:23:27.169Z,3.65
2023-04-28T06:25:53.791Z,3.03
2023-04-28T06:28:20.397Z,3.08
2023-04-28T06:30:48.282Z,3.17
2023-04-28T06:33:15.124Z,2.72
2023-04-28T06:35:43.148Z,2.80
2023-04-28T06:38:12.050Z,2.70
2023-04-28T06:40:42.138Z,2.75
2023-04-28T06:43:08.780Z,2.60
2023-04-28T06:45:35.367Z,2.67
2023-04-28T06:48:02.366Z,3.20
2023-04-28T06:50:29.060Z,2.50
2023-04-28T06:52:55.931Z,2.50
2023-04-28T06:55:23.642Z,2.40
2023-04-28T06:57:50.269Z,2.00
2023-04-28T07:00:17.444Z,2.45
2023-04-28T07:02:44.154Z,2.03
2023-04-28T07:05:10.927Z,2.28
2023-04-28T07:07:39.051Z,2.15
2023-04-28T07:10:06.558Z,2.58
2023-04-28T07:12:33.183Z,2.45
2023-04-28T07:14:59.813Z,2.15
2023-04-28T07:17:26.407Z,2.30
2023-04-28T07:19:53.021Z,2.42
2023-04-28T07:22:19.598Z,2.17
2023-04-28T07:24:46.246Z,2.30
2023-04-28T07:27:12.953Z,2.35
2023-04-28T07:29:39.580Z,2.70
2023-04-28T07:32:08.562Z,1.95
2023-04-28T07:34:35.812Z,2.03
2023-04-28T07:37:03.450Z,2.25
2023-04-28T07:39:31.911Z,1.90
2023-04-28T07:41:59.118Z,2.33
2023-04-28T07:44:27.428Z,2.25
2023-04-28T07:46:54.119Z,2.10
2023-04-28T07:49:20.748Z,2.17
2023-04-28T07:51:47.422Z,2.58
2023-04-28T07:54:14.847Z,2.10
2023-04-28T07:56:41.643Z,2.10
2023-04-28T07:59:08.637Z,2.05
2023-04-28T08:01:35.409Z,2.20
2023-04-28T08:04:02.151Z,2.10
2023-04-28T08:06:29.286Z,2.00
2023-04-28T08:08:55.936Z,1.65
2023-04-28T08:11:22.658Z,2.15
2023-04-28T08:13:49.516Z,1.90
2023-04-28T08:16:16.586Z,1.48
2023-04-28T08:18:44.974Z,1.60
2023-04-28T08:21:11.666Z,2.47
2023-04-28T08:23:39.858Z,1.92
2023-04-28T08:26:06.462Z,2.42
2023-04-28T08:28:33.981Z,2.20
2023-04-28T08:31:01.756Z,2.50
2023-04-28T08:33:30.446Z,2.22
2023-04-28T08:35:59.325Z,2.15
2023-04-28T08:38:26.782Z,2.00
2023-04-28T08:40:53.492Z,2.17
2023-04-28T08:43:21.462Z,2.28
2023-04-28T08:45:48.068Z,1.90
2023-04-28T08:48:21.913Z,1.63
2023-04-28T08:50:54.304Z,3.33
2023-04-28T08:53:27.509Z,2.30
2023-04-28T08:55:59.218Z,2.72
2023-04-28T08:58:27.550Z,2.28
2023-04-28T09:00:57.100Z,2.05
2023-04-28T09:03:24.095Z,2.55
2023-04-28T09:05:52.761Z,2.20
2023-04-28T09:08:19.367Z,2.85
2023-04-28T09:10:46.253Z,2.67
2023-04-28T09:13:25.544Z,2.40
2023-04-28T09:16:01.331Z,2.33
2023-04-28T09:18:27.944Z,2.58
2023-04-28T09:21:09.394Z,2.95
2023-04-28T09:23:48.816Z,2.38
2023-04-28T09:26:16.284Z,2.95
2023-04-28T09:28:42.872Z,2.40
2023-04-28T09:31:27.492Z,2.60
2023-04-28T09:33:58.389Z,2.67
2023-04-28T09:36:32.594Z,2.88
2023-04-28T09:39:00.177Z,3.00
2023-04-28T09:41:41.497Z,3.10
2023-04-28T09:44:24.389Z,2.40
2023-04-28T09:46:53.310Z,2.60
2023-04-28T09:49:19.863Z,2.72
2023-04-28T09:51:46.506Z,2.88
2023-04-28T09:54:13.728Z,3.10
2023-04-28T09:56:42.566Z,2.65
2023-04-28T09:59:09.537Z,3.00
2023-04-28T10:01:41.074Z,2.30
2023-04-28T10:04:08.960Z,2.40
2023-04-28T10:06:38.699Z,2.85
2023-04-28T10:09:06.498Z,2.65
2023-04-28T10:11:36.607Z,2.53
2023-04-28T10:14:03.186Z,2.95
2023-04-28T10:16:32.877Z,2.50
2023-04-28T10:19:01.983Z,3.00
2023-04-28T10:21:29.897Z,2.30
2023-04-28T10:24:32.926Z,2.70
2023-04-28T10:27:09.656Z,2.83
2023-04-28T10:29:36.623Z,3.00
2023-04-28T10:32:24.986Z,2.83
2023-04-28T10:34:52.525Z,3.10
2023-04-28T10:37:19.310Z,3.38
2023-04-28T10:40:37.320Z,3.38
2023-04-28T10:43:06.708Z,2.53
2023-04-28T10:46:01.775Z,2.92
2023-04-28T10:48:37.336Z,2.92
2023-04-28T10:51:04.153Z,2.67
2023-04-28T10:53:46.504Z,2.50
2023-04-28T10:56:16.832Z,2.65
2023-04-28T10:58:46.274Z,3.35
2023-04-28T11:01:22.072Z,2.65
2023-04-28T11:03:51.571Z,2.70
2023-04-28T11:06:41.610Z,2.92
2023-04-28T11:09:20.116Z,2.90
2023-04-28T11:12:10.925Z,3.55
2023-04-28T11:14:40.432Z,3.17
2023-04-28T11:17:08.957Z,3.40
2023-04-28T11:19:45.813Z,2.95
2023-04-28T11:22:20.170Z,3.33
2023-04-28T11:24:58.956Z,3.10
2023-04-28T11:27:32.165Z,3.05
2023-04-28T11:29:59.877Z,3.45
2023-04-28T11:32:31.346Z,3.72
2023-04-28T11:34:59.955Z,3.65
2023-04-28T11:37:27.192Z,3.33
2023-04-28T11:39:55.401Z,3.55
2023-04-28T11:42:22.145Z,3.42
2023-04-28T11:44:53.050Z,3.70
2023-04-28T11:47:31.081Z,3.38
2023-04-28T11:49:58.184Z,2.95
2023-04-28T11:52:27.163Z,3.70
2023-04-28T11:54:59.957Z,3.53
2023-04-28T11:57:26.913Z,3.35
2023-04-28T11:59:53.640Z,3.13
2023-04-28T12:02:30.746Z,3.05
2023-04-28T12:05:08.278Z,3.42
2023-04-28T12:07:46.165Z,3.70
2023-04-28T12:10:15.669Z,3.35
2023-04-28T12:12:51.004Z,3.10
2023-04-28T12:15:22.763Z,3.15
2023-04-28T12:17:50.539Z,3.60
2023-04-28T12:20:39.735Z,3.80
2023-04-28T12:23:07.591Z,3.47
2023-04-28T12:25:43.520Z,3.30
2023-04-28T12:28:10.697Z,2.90
2023-04-28T12:30:38.898Z,3.15
2023-04-28T12:33:05.892Z,3.33
2023-04-28T12:35:33.073Z,3.65
2023-04-28T12:38:00.258Z,3.85
2023-04-28T12:40:26.998Z,3.40
2023-04-28T12:42:55.820Z,3.33
2023-04-28T12:45:22.417Z,3.33
2023-04-28T12:47:49.189Z,3.13
2023-04-28T12:50:15.931Z,3.30
2023-04-28T12:52:42.569Z,3.15
2023-04-28T12:55:09.595Z,3.80
2023-04-28T12:57:39.029Z,3.60
2023-04-28T13:00:07.822Z,3.70
2023-04-28T13:02:35.025Z,4.15
2023-04-28T13:05:02.125Z,3.55
2023-04-28T13:07:32.310Z,3.60
2023-04-28T13:09:59.339Z,3.65
2023-04-28T13:12:28.308Z,3.92
2023-04-28T13:14:55.855Z,3.55
2023-04-28T13:17:22.966Z,3.40
2023-04-28T13:19:51.190Z,3.20
2023-04-28T13:22:18.227Z,3.38
2023-04-28T13:24:44.961Z,4.47
2023-04-28T13:27:13.050Z,4.03
2023-04-28T13:29:40.151Z,3.85
2023-04-28T13:32:07.118Z,4.03
2023-04-28T13:34:33.926Z,3.65
2023-04-28T13:37:00.526Z,3.72
2023-04-28T13:39:27.079Z,3.60
2023-04-28T13:41:55.173Z,3.55
2023-04-28T13:44:22.103Z,3.60
2023-04-28T13:46:49.442Z,3.80
2023-04-28T13:49:16.399Z,4.10
2023-04-28T13:51:44.799Z,3.63
2023-04-28T13:54:13.861Z,3.42
2023-04-28T13:56:41.309Z,3.60
2023-04-28T13:59:09.324Z,3.58
2023-04-28T14:01:36.011Z,3.45
2023-04-28T14:04:05.115Z,3.72
2023-04-28T14:06:33.633Z,4.18
2023-04-28T14:09:02.582Z,3.40
2023-04-28T14:11:29.139Z,3.78
2023-04-28T14:13:55.853Z,3.55
2023-04-28T14:16:22.563Z,3.25
2023-04-28T14:18:49.656Z,3.58
2023-04-28T14:21:18.149Z,3.53
2023-04-28T14:23:44.694Z,2.58
2023-04-28T14:26:13.277Z,3.55
2023-04-28T14:28:39.986Z,4.03
2023-04-28T14:31:07.519Z,3.28
2023-04-28T14:33:34.281Z,3.15
2023-04-28T14:36:02.381Z,2.92
2023-04-28T14:38:30.577Z,3.30
2023-04-28T14:40:57.657Z,3.50
2023-04-28T14:43:24.713Z,2.95
2023-04-28T14:45:51.782Z,2.70
2023-04-28T14:48:18.501Z,3.22
2023-04-28T14:50:46.010Z,3.50
2023-04-28T14:53:12.633Z,3.53
2023-04-28T14:55:41.380Z,3.80
2023-04-28T14:58:08.047Z,4.30
2023-04-28T15:00:35.889Z,4.20
2023-04-28T15:03:02.882Z,4.72
2023-04-28T15:05:30.235Z,4.13
2023-04-28T15:07:57.728Z,4.03
2023-04-28T15:10:24.344Z,3.80
2023-04-28T15:12:51.061Z,4.25
2023-04-28T15:15:19.246Z,3.75
2023-04-28T15:17:45.878Z,3.78
2023-04-28T15:20:12.531Z,3.95
2023-04-28T15:22:40.912Z,3.70
2023-04-28T15:25:09.667Z,4.00
2023-04-28T15:27:38.099Z,4.13
2023-04-28T15:30:07.674Z,4.45
2023-04-28T15:32:36.580Z,6.00
2023-04-28T15:35:04.021Z,4.35
2023-04-28T15:37:44.554Z,4.03
2023-04-28T15:40:14.574Z,4.05
2023-04-28T15:42:42.795Z,4.05
2023-04-28T15:45:13.281Z,4.13
2023-04-28T15:47:40.436Z,4.68
2023-04-28T15:50:09.046Z,4.40
2023-04-28T15:52:38.677Z,4.05
2023-04-28T15:55:06.496Z,4.65
2023-04-28T15:57:33.238Z,4.43
2023-04-28T16:00:00.087Z,5.32
2023-04-28T16:02:28.529Z,4.22
2023-04-28T16:04:56.773Z,4.50
2023-04-28T16:07:23.797Z,4.43
2023-04-28T16:09:50.795Z,4.68
2023-04-28T16:12:19.140Z,4.60
2023-04-28T16:14:50.108Z,4.47
2023-04-28T16:17:17.307Z,4.60
2023-04-28T16:19:45.959Z,4.25
2023-04-28T16:22:12.664Z,4.28
2023-04-28T16:24:42.595Z,3.95
2023-04-28T16:27:09.949Z,4.75
2023-04-28T16:29:36.804Z,4.05
2023-04-28T16:32:04.311Z,4.05
2023-04-28T16:34:31.631Z,4.63
2023-04-28T16:37:04.257Z,4.88
2023-04-28T16:39:32.375Z,4.88
2023-04-28T16:42:03.775Z,5.00
2023-04-28T16:44:30.803Z,4.40
2023-04-28T16:46:58.237Z,4.97
2023-04-28T16:49:32.206Z,4.55
2023-04-28T16:52:04.089Z,5.20
2023-04-28T16:54:32.178Z,4.85
2023-04-28T16:57:00.608Z,4.57
2023-04-28T16:59:30.165Z,5.68
2023-04-28T17:02:01.699Z,6.05
2023-04-28T17:04:29.012Z,6.93
2023-04-28T17:06:56.091Z,6.68
2023-04-28T17:09:22.962Z,6.15
2023-04-28T17:11:50.157Z,6.07
2023-04-28T17:14:17.009Z,6.25
2023-04-28T17:16:46.534Z,5.60
2023-04-28T17:19:13.579Z,6.68
2023-04-28T17:21:40.254Z,6.15
2023-04-28T17:24:07.080Z,6.00
2023-04-28T17:26:33.776Z,7.30
2023-04-28T17:29:00.525Z,6.55
2023-04-28T17:31:29.072Z,7.15
2023-04-28T17:33:57.810Z,8.00
2023-04-28T17:36:26.996Z,8.13
2023-04-28T17:38:56.255Z,7.50
2023-04-28T17:41:23.434Z,6.82
2023-04-28T17:43:53.460Z,6.20
2023-04-28T17:46:20.996Z,6.80
2023-04-28T17:48:47.669Z,6.55
2023-04-28T17:51:14.358Z,6.13
2023-04-28T17:53:42.241Z,6.35
2023-04-28T17:56:09.073Z,7.50
2023-04-28T17:58:37.244Z,6.38
2023-04-28T18:01:05.499Z,6.07
2023-04-28T18:03:34.557Z,6.65
2023-04-28T18:06:02.545Z,6.40
2023-04-28T18:08:29.113Z,6.63
2023-04-28T18:10:57.859Z,7.32
2023-04-28T18:13:24.482Z,6.68
2023-04-28T18:15:51.072Z,6.68
2023-04-28T18:18:18.375Z,6.20
2023-04-28T18:20:45.116Z,6.55
2023-04-28T18:23:12.112Z,6.18
2023-04-28T18:25:38.901Z,6.90
2023-04-28T18:28:05.818Z,6.68
2023-04-28T18:30:40.034Z,7.30
2023-04-28T18:33:09.680Z,7.85
2023-04-28T18:35:37.101Z,7.38
2023-04-28T18:38:06.854Z,7.45
2023-04-28T18:40:39.966Z,8.38
2023-04-28T18:43:07.605Z,7.55
2023-04-28T18:45:40.743Z,6.97
2023-04-28T18:48:08.347Z,7.93
2023-04-28T18:50:35.115Z,7.50
2023-04-28T18:53:03.527Z,7.88
2023-04-28T18:55:32.263Z,8.15
2023-04-28T18:58:01.682Z,7.85
2023-04-28T19:00:28.508Z,7.03
2023-04-28T19:02:55.159Z,9.15
2023-04-28T19:05:22.331Z,7.22
2023-04-28T19:07:50.633Z,7.55
2023-04-28T19:10:18.910Z,7.93
2023-04-28T19:12:45.515Z,6.63
2023-04-28T19:15:12.580Z,6.57
2023-04-28T19:17:39.513Z,7.15
2023-04-28T19:20:07.100Z,7.40
2023-04-28T19:22:38.145Z,6.55
2023-04-28T19:25:08.551Z,6.35
2023-04-28T19:27:37.275Z,6.22
2023-04-28T19:30:06.040Z,6.18
2023-04-28T19:32:32.701Z,6.80
2023-04-28T19:34:59.546Z,5.80
2023-04-28T19:37:26.629Z,7.70
2023-04-28T19:39:53.294Z,6.95
2023-04-28T19:42:19.967Z,6.75
2023-04-28T19:44:47.623Z,5.95
2023-04-28T19:47:25.469Z,6.55
2023-04-28T19:49:52.948Z,6.50
2023-04-28T19:52:22.172Z,6.28
2023-04-28T19:54:49.642Z,5.60
2023-04-28T19:57:17.390Z,6.40
2023-04-28T19:59:44.523Z,6.22
2023-04-28T20:02:11.293Z,6.90
2023-04-28T20:04:38.171Z,5.80
2023-04-28T20:07:05.770Z,6.97
2023-04-28T20:09:38.980Z,6.35
2023-04-28T20:12:08.135Z,6.30
2023-04-28T20:14:35.394Z,6.22
2023-04-28T20:17:03.618Z,6.80
2023-04-28T20:19:30.715Z,7.00
2023-04-28T20:21:57.452Z,7.57
2023-04-28T20:24:24.111Z,6.63
2023-04-28T20:26:51.418Z,6.78
2023-04-28T20:29:17.988Z,7.28
2023-04-28T20:31:47.618Z,6.68
2023-04-28T20:34:15.866Z,7.00
2023-04-28T20:36:43.163Z,6.97
2023-04-28T20:39:14.333Z,7.15
2023-04-28T20:41:41.331Z,6.80
2023-04-28T20:44:09.436Z,7.03
2023-04-28T20:46:36.112Z,7.30
2023-04-28T20:49:04.733Z,7.00
2023-04-28T20:51:34.106Z,7.68
2023-04-28T20:54:01.234Z,6.70
2023-04-28T20:56:27.923Z,7.53
2023-04-28T20:58:55.562Z,7.70
2023-04-28T21:01:22.479Z,8.80
2023-04-28T21:03:49.528Z,8.90
2023-04-28T21:06:16.570Z,7.85
2023-04-28T21:08:43.745Z,6.95
2023-04-28T21:11:17.944Z,7.10
2023-04-28T21:13:45.270Z,7.72
2023-04-28T21:16:20.461Z,7.53
2023-04-28T21:18:49.015Z,6.97
2023-04-28T21:21:15.855Z,6.35
2023-04-28T21:23:42.678Z,6.25
2023-04-28T21:26:10.129Z,6.95
2023-04-28T21:28:39.126Z,6.75
2023-04-28T21:31:06.128Z,6.57
2023-04-28T21:33:33.067Z,6.30
2023-04-28T21:36:05.526Z,6.57
2023-04-28T21:38:32.917Z,6.20
2023-04-28T21:40:59.574Z,6.50
2023-04-28T21:43:26.281Z,5.82
2023-04-28T21:45:52.970Z,6.18
2023-04-28T21:48:19.616Z,6.03
2023-04-28T21:50:47.247Z,6.72
2023-04-28T21:53:14.381Z,5.90
2023-04-28T21:55:41.402Z,6.05
2023-04-28T21:58:08.211Z,5.68
2023-04-28T22:00:41.308Z,5.82
2023-04-28T22:03:08.402Z,5.95
2023-04-28T22:05:35.380Z,5.97
2023-04-28T22:08:02.001Z,5.80
2023-04-28T22:10:28.605Z,5.55
2023-04-28T22:12:55.191Z,5.93
2023-04-28T22:15:21.910Z,5.75
2023-04-28T22:17:48.577Z,5.25
2023-04-28T22:20:15.426Z,5.93
2023-04-28T22:22:42.249Z,5.75
2023-04-28T22:25:09.152Z,5.45
2023-04-28T22:27:37.874Z,4.97
2023-04-28T22:30:04.997Z,5.22
2023-04-28T22:32:31.760Z,5.75
2023-04-28T22:34:58.452Z,5.43
2023-04-28T22:37:25.011Z,6.07
2023-04-28T22:39:51.876Z,5.30
2023-04-28T22:42:18.799Z,5.35
2023-04-28T22:44:45.502Z,5.47
2023-04-28T22:47:12.048Z,5.20
2023-04-28T22:49:39.594Z,5.53
2023-04-28T22:52:06.548Z,5.75
2023-04-28T22:54:33.224Z,5.65
2023-04-28T22:56:59.811Z,6.25
2023-04-28T22:59:26.942Z,6.10
2023-04-28T23:01:54.726Z,5.20
2023-04-28T23:04:21.811Z,6.53
2023-04-28T23:06:48.977Z,6.18
2023-04-28T23:09:15.605Z,5.55
2023-04-28T23:11:42.292Z,5.95
2023-04-28T23:14:08.910Z,6.32
2023-04-28T23:16:36.221Z,5.78
2023-04-28T23:19:04.750Z,5.78
2023-04-28T23:21:31.832Z,6.03
2023-04-28T23:23:58.431Z,5.70
2023-04-28T23:26:25.445Z,6.22
2023-04-28T23:28:52.313Z,6.00
2023-04-28T23:31:19.009Z,5.88
2023-04-28T23:33:45.647Z,5.72
2023-04-28T23:36:12.505Z,6.00
2023-04-28T23:38:39.971Z,6.45
2023-04-28T23:41:07.272Z,6.57
2023-04-28T23:43:33.856Z,5.68
2023-04-28T23:46:00.476Z,6.28
2023-04-28T23:48:27.490Z,5.90
2023-04-28T23:50:54.433Z,6.57
2023-04-28T23:53:21.440Z,5.90
2023-04-28T23:55:48.438Z,6.85
2023-04-28T23:58:14.990Z,6.10
